createdAt,value
2022-12-26T00:01:36.937Z,98709.06
2022-12-26T00:04:06.750Z,98712.59
2022-12-26T00:06:55.082Z,98713.72
2022-12-26T00:09:24.816Z,98711.19
2022-12-26T00:11:53.320Z,98714.66
2022-12-26T00:14:21.676Z,98723.56
2022-12-26T00:16:50.141Z,98715.53
2022-12-26T00:19:18.592Z,98722.34
2022-12-26T00:21:47.528Z,98708.16
2022-12-26T00:24:15.880Z,98717.06
2022-12-26T00:26:45.619Z,98711.91
2022-12-26T00:29:14.070Z,98711.19
2022-12-26T00:31:42.448Z,98708.97
2022-12-26T00:34:11.244Z,98699.50
2022-12-26T00:36:39.568Z,98699.44
2022-12-26T00:39:08.171Z,98696.66
2022-12-26T00:41:36.795Z,98705.56
2022-12-26T00:44:06.735Z,98711.66
2022-12-26T00:46:35.131Z,98722.25
2022-12-26T00:49:04.244Z,98724.91
2022-12-26T00:51:32.620Z,98721.31
2022-12-26T00:54:00.941Z,98731.78
2022-12-26T00:56:29.439Z,98726.59
2022-12-26T00:58:57.810Z,98737.28
2022-12-26T01:01:30.721Z,98754.00
2022-12-26T01:03:59.759Z,98743.03
2022-12-26T01:06:28.136Z,98751.91
2022-12-26T01:08:56.515Z,98746.63
2022-12-26T01:11:39.320Z,98740.50
2022-12-26T01:14:09.399Z,98744.56
2022-12-26T01:16:39.629Z,98737.38
2022-12-26T01:19:08.744Z,98752.19
2022-12-26T01:21:37.188Z,98743.38
2022-12-26T01:24:06.427Z,98742.38
2022-12-26T01:26:36.290Z,98757.38
2022-12-26T01:29:04.633Z,98754.78
2022-12-26T01:31:33.249Z,98752.25
2022-12-26T01:34:03.080Z,98749.59
2022-12-26T01:36:31.512Z,98762.75
2022-12-26T01:38:59.833Z,98750.25
2022-12-26T01:41:30.303Z,98761.66
2022-12-26T01:44:01.673Z,98745.81
2022-12-26T01:46:33.330Z,98748.59
2022-12-26T01:49:09.666Z,98757.13
2022-12-26T01:51:40.964Z,98767.94
2022-12-26T01:54:37.313Z,98763.97
2022-12-26T01:57:03.851Z,98770.69
2022-12-26T01:59:36.845Z,98772.75
2022-12-26T02:02:06.506Z,98799.50
2022-12-26T02:04:59.398Z,98804.16
2022-12-26T02:07:28.051Z,98798.41
2022-12-26T02:09:56.620Z,98792.59
2022-12-26T02:12:35.985Z,98776.31
2022-12-26T02:15:10.153Z,98782.78
2022-12-26T02:17:39.129Z,98768.91
2022-12-26T02:20:18.331Z,98783.53
2022-12-26T02:23:28.383Z,98782.78
2022-12-26T02:26:35.886Z,98775.34
2022-12-26T02:29:33.554Z,98807.09
2022-12-26T02:32:12.926Z,98802.81
2022-12-26T02:34:52.018Z,98796.16
2022-12-26T02:37:31.396Z,98797.19
2022-12-26T02:40:19.937Z,98805.78
2022-12-26T02:42:59.195Z,98803.88
2022-12-26T02:45:52.846Z,98793.53
2022-12-26T02:48:32.796Z,98797.81
2022-12-26T02:51:31.335Z,98814.28
2022-12-26T02:54:29.663Z,98819.63
2022-12-26T02:57:21.769Z,98816.88
2022-12-26T03:00:14.162Z,98809.78
2022-12-26T03:03:06.483Z,98815.25
2022-12-26T03:05:59.681Z,98804.59
2022-12-26T03:08:50.415Z,98799.91
2022-12-26T03:11:36.956Z,98806.09
2022-12-26T03:14:15.628Z,98811.13
2022-12-26T03:17:06.609Z,98811.72
2022-12-26T03:19:38.326Z,98806.78
2022-12-26T03:22:29.716Z,98816.53
2022-12-26T03:25:13.280Z,98794.56
2022-12-26T03:27:41.727Z,98806.84
2022-12-26T03:30:28.075Z,98822.16
2022-12-26T03:32:57.310Z,98810.22
2022-12-26T03:35:27.518Z,98817.34
2022-12-26T03:38:00.599Z,98816.78
2022-12-26T03:40:59.585Z,98816.03
2022-12-26T03:44:14.561Z,98810.88
2022-12-26T03:47:13.247Z,98809.25
2022-12-26T03:50:04.753Z,98794.47
2022-12-26T03:52:57.885Z,98795.16
2022-12-26T03:55:53.305Z,98808.63
2022-12-26T03:58:48.855Z,98822.53
2022-12-26T04:01:37.579Z,98817.25
2022-12-26T04:04:27.828Z,98830.59
2022-12-26T04:07:17.025Z,98833.41
2022-12-26T04:10:06.889Z,98831.09
2022-12-26T04:12:56.055Z,98832.78
2022-12-26T04:15:49.647Z,98823.38
2022-12-26T04:18:53.952Z,98814.72
2022-12-26T04:21:49.287Z,98820.06
2022-12-26T04:24:41.034Z,98827.06
2022-12-26T04:27:31.935Z,98825.22
2022-12-26T04:30:19.754Z,98831.50
2022-12-26T04:33:11.840Z,98833.59
2022-12-26T04:36:05.412Z,98833.75
2022-12-26T04:38:57.382Z,98826.00
2022-12-26T04:41:46.098Z,98826.94
2022-12-26T04:44:17.679Z,98833.16
2022-12-26T04:46:49.416Z,98824.34
2022-12-26T04:49:36.424Z,98839.34
2022-12-26T04:52:07.775Z,98843.00
2022-12-26T04:54:36.394Z,98843.81
2022-12-26T04:57:04.959Z,98839.59
2022-12-26T04:59:33.808Z,98844.63
2022-12-26T05:02:20.890Z,98827.22
2022-12-26T05:05:06.835Z,98833.31
2022-12-26T05:07:55.737Z,98823.78
2022-12-26T05:10:26.751Z,98822.41
2022-12-26T05:12:56.000Z,98817.69
2022-12-26T05:15:24.811Z,98824.72
2022-12-26T05:18:12.085Z,98825.56
2022-12-26T05:21:13.085Z,98829.91
2022-12-26T05:23:59.088Z,98845.03
2022-12-26T05:26:56.239Z,98839.88
2022-12-26T05:29:26.443Z,98831.16
2022-12-26T05:31:54.845Z,98843.56
2022-12-26T05:34:23.608Z,98839.22
2022-12-26T05:36:56.380Z,98838.59
2022-12-26T05:39:24.816Z,98843.84
2022-12-26T05:41:53.171Z,98834.16
2022-12-26T05:44:21.688Z,98826.38
2022-12-26T05:46:50.240Z,98822.09
2022-12-26T05:49:18.763Z,98832.47
2022-12-26T05:51:48.449Z,98847.66
2022-12-26T05:54:16.908Z,98856.34
2022-12-26T05:56:49.305Z,98857.31
2022-12-26T05:59:18.001Z,98861.00
2022-12-26T06:01:46.521Z,98868.94
2022-12-26T06:04:15.067Z,98877.63
2022-12-26T06:06:43.468Z,98880.28
2022-12-26T06:09:13.183Z,98875.13
2022-12-26T06:11:48.571Z,98862.22
2022-12-26T06:14:17.777Z,98855.41
2022-12-26T06:16:46.200Z,98879.06
2022-12-26T06:19:14.622Z,98891.56
2022-12-26T06:21:43.050Z,98890.75
2022-12-26T06:24:13.907Z,98876.59
2022-12-26T06:26:42.501Z,98884.59
2022-12-26T06:29:11.151Z,98884.66
2022-12-26T06:31:39.863Z,98873.28
2022-12-26T06:34:08.259Z,98884.81
2022-12-26T06:36:37.420Z,98885.66
2022-12-26T06:39:05.902Z,98893.50
2022-12-26T06:41:35.613Z,98901.53
2022-12-26T06:44:03.983Z,98900.56
2022-12-26T06:46:32.893Z,98901.53
2022-12-26T06:49:01.300Z,98905.97
2022-12-26T06:51:30.161Z,98901.56
2022-12-26T06:54:02.607Z,98893.13
2022-12-26T06:56:33.268Z,98894.09
2022-12-26T06:59:05.712Z,98903.75
2022-12-26T07:01:35.900Z,98903.03
2022-12-26T07:04:06.181Z,98908.22
2022-12-26T07:06:39.175Z,98902.25
2022-12-26T07:09:09.288Z,98910.91
2022-12-26T07:11:40.187Z,98919.03
2022-12-26T07:14:10.106Z,98914.34
2022-12-26T07:16:39.306Z,98916.97
2022-12-26T07:19:08.139Z,98927.41
2022-12-26T07:21:40.745Z,98928.13
2022-12-26T07:24:16.009Z,98933.28
2022-12-26T07:26:44.677Z,98927.09
2022-12-26T07:29:15.160Z,98938.25
2022-12-26T07:31:43.983Z,98932.88
2022-12-26T07:34:12.629Z,98928.34
2022-12-26T07:36:41.335Z,98926.63
2022-12-26T07:39:10.304Z,98915.94
2022-12-26T07:41:56.038Z,98932.66
2022-12-26T07:44:26.031Z,98930.88
2022-12-26T07:46:55.417Z,98945.03
2022-12-26T07:49:24.305Z,98956.03
2022-12-26T07:51:53.248Z,98954.31
2022-12-26T07:54:21.929Z,98938.63
2022-12-26T07:56:50.292Z,98953.59
2022-12-26T07:59:18.939Z,98949.84
2022-12-26T08:01:48.755Z,98952.38
2022-12-26T08:04:17.206Z,98962.00
2022-12-26T08:06:47.055Z,98956.78
2022-12-26T08:09:17.168Z,98951.50
2022-12-26T08:11:45.731Z,98951.63
2022-12-26T08:14:16.593Z,98955.06
2022-12-26T08:16:49.740Z,98951.50
2022-12-26T08:19:22.827Z,98957.63
2022-12-26T08:21:51.364Z,98953.06
2022-12-26T08:24:19.734Z,98952.88
2022-12-26T08:26:48.087Z,98952.03
2022-12-26T08:29:16.658Z,98951.16
2022-12-26T08:31:45.350Z,98944.09
2022-12-26T08:34:13.866Z,98948.25
2022-12-26T08:36:43.622Z,98959.47
2022-12-26T08:39:12.012Z,98974.31
2022-12-26T08:41:40.336Z,98979.47
2022-12-26T08:44:27.505Z,98972.22
2022-12-26T08:46:56.915Z,98973.25
2022-12-26T08:49:25.325Z,98982.88
2022-12-26T08:51:55.023Z,98994.16
2022-12-26T08:54:23.531Z,98985.41
2022-12-26T08:56:51.942Z,99000.19
2022-12-26T08:59:20.652Z,99003.69
2022-12-26T09:01:49.101Z,98996.84
2022-12-26T09:04:17.689Z,98992.94
2022-12-26T09:06:46.065Z,98997.97
2022-12-26T09:09:15.881Z,98998.91
2022-12-26T09:11:44.546Z,98996.44
2022-12-26T09:14:13.204Z,99010.59
2022-12-26T09:16:50.387Z,99021.94
2022-12-26T09:19:20.924Z,99019.53
2022-12-26T09:22:10.777Z,99028.44
2022-12-26T09:24:40.541Z,99027.38
2022-12-26T09:27:10.665Z,99035.28
2022-12-26T09:29:39.252Z,99050.19
2022-12-26T09:32:08.824Z,99039.56
2022-12-26T09:34:37.292Z,99048.28
2022-12-26T09:37:05.685Z,99036.97
2022-12-26T09:39:34.317Z,99051.56
2022-12-26T09:42:15.573Z,99059.28
2022-12-26T09:44:53.436Z,99052.81
2022-12-26T09:47:32.315Z,99050.00
2022-12-26T09:50:05.108Z,99063.19
2022-12-26T09:52:42.733Z,99059.16
2022-12-26T09:55:26.907Z,99061.03
2022-12-26T09:58:00.264Z,99060.09
2022-12-26T10:00:33.670Z,99068.06
2022-12-26T10:03:02.847Z,99064.66
2022-12-26T10:05:37.069Z,99075.34
2022-12-26T10:08:23.248Z,99075.59
2022-12-26T10:11:00.101Z,99087.63
2022-12-26T10:13:38.173Z,99082.19
2022-12-26T10:16:10.634Z,99086.69
2022-12-26T10:18:49.422Z,99078.22
2022-12-26T10:21:30.151Z,99075.22
2022-12-26T10:24:03.715Z,99076.03
2022-12-26T10:26:36.218Z,99081.25
2022-12-26T10:29:14.645Z,99079.47
2022-12-26T10:31:47.313Z,99076.03
2022-12-26T10:34:21.020Z,99077.75
2022-12-26T10:36:51.899Z,99083.69
2022-12-26T10:39:25.766Z,99067.88
2022-12-26T10:41:59.429Z,99072.69
2022-12-26T10:44:29.500Z,99072.75
2022-12-26T10:47:14.625Z,99077.91
2022-12-26T10:49:45.861Z,99077.34
2022-12-26T10:52:16.711Z,99081.78
2022-12-26T10:54:48.815Z,99079.09
2022-12-26T10:57:17.469Z,99078.19
2022-12-26T10:59:49.499Z,99088.06
2022-12-26T11:02:25.710Z,99070.28
2022-12-26T11:05:26.738Z,99075.69
2022-12-26T11:08:09.077Z,99085.13
2022-12-26T11:10:38.211Z,99074.81
2022-12-26T11:13:09.665Z,99066.81
2022-12-26T11:15:42.645Z,99070.59
2022-12-26T11:18:20.282Z,99074.03
2022-12-26T11:20:50.322Z,99073.03
2022-12-26T11:23:27.776Z,99084.44
2022-12-26T11:25:58.338Z,99073.16
2022-12-26T11:28:32.472Z,99088.28
2022-12-26T11:31:05.781Z,99089.41
2022-12-26T11:33:37.316Z,99083.91
2022-12-26T11:36:11.574Z,99086.28
2022-12-26T11:38:54.088Z,99093.47
2022-12-26T11:41:39.821Z,99089.31
2022-12-26T11:44:18.833Z,99093.00
2022-12-26T11:46:53.484Z,99097.47
2022-12-26T11:49:28.278Z,99090.66
2022-12-26T11:51:59.797Z,99080.97
2022-12-26T11:54:32.350Z,99084.31
2022-12-26T11:57:12.076Z,99081.59
2022-12-26T11:59:40.777Z,99095.50
2022-12-26T12:02:27.773Z,99079.88
2022-12-26T12:05:02.724Z,99088.84
2022-12-26T12:08:04.612Z,99079.16
2022-12-26T12:10:57.356Z,99079.75
2022-12-26T12:13:48.196Z,99070.06
2022-12-26T12:16:34.380Z,99074.03
2022-12-26T12:19:17.623Z,99072.25
2022-12-26T12:21:51.643Z,99067.41
2022-12-26T12:24:40.059Z,99073.56
2022-12-26T12:27:15.592Z,99064.72
2022-12-26T12:30:01.629Z,99059.59
2022-12-26T12:32:34.245Z,99068.41
2022-12-26T12:35:25.389Z,99065.94
2022-12-26T12:38:14.958Z,99059.00
2022-12-26T12:40:51.410Z,99057.88
2022-12-26T12:43:27.480Z,99063.16
2022-12-26T12:46:07.089Z,99070.13
2022-12-26T12:48:56.499Z,99066.59
2022-12-26T12:51:35.821Z,99066.66
2022-12-26T12:54:25.153Z,99100.22
2022-12-26T12:57:02.748Z,99089.41
2022-12-26T12:59:41.312Z,99092.88
2022-12-26T13:02:20.937Z,99096.97
2022-12-26T13:04:57.034Z,99102.88
2022-12-26T13:07:34.081Z,99100.63
2022-12-26T13:10:06.047Z,99105.00
2022-12-26T13:12:39.102Z,99117.19
2022-12-26T13:15:10.873Z,99103.16
2022-12-26T13:17:58.060Z,99113.50
2022-12-26T13:20:34.110Z,99094.31
2022-12-26T13:23:24.644Z,99096.78
2022-12-26T13:26:05.639Z,99108.25
2022-12-26T13:28:40.661Z,99109.09
2022-12-26T13:31:09.306Z,99121.22
2022-12-26T13:33:38.471Z,99104.63
2022-12-26T13:36:07.167Z,99094.22
2022-12-26T13:39:13.953Z,99116.22
2022-12-26T13:42:07.729Z,99108.25
2022-12-26T13:44:36.178Z,99104.59
2022-12-26T13:47:04.905Z,99117.00
2022-12-26T13:49:37.181Z,99117.28
2022-12-26T13:52:32.700Z,99132.59
2022-12-26T13:55:31.602Z,99141.81
2022-12-26T13:58:29.223Z,99148.16
2022-12-26T14:01:05.519Z,99152.00
2022-12-26T14:03:49.967Z,99145.28
2022-12-26T14:06:47.497Z,99155.94
2022-12-26T14:09:44.624Z,99161.19
2022-12-26T14:12:34.943Z,99167.31
2022-12-26T14:15:23.376Z,99173.28
2022-12-26T14:18:01.849Z,99176.81
2022-12-26T14:20:41.324Z,99182.09
2022-12-26T14:23:29.081Z,99175.19
2022-12-26T14:26:04.361Z,99186.47
2022-12-26T14:28:47.528Z,99192.47
2022-12-26T14:31:26.126Z,99187.13
2022-12-26T14:34:06.919Z,99190.50
2022-12-26T14:36:48.221Z,99199.25
2022-12-26T14:39:28.327Z,99202.63
2022-12-26T14:42:40.985Z,99205.41
2022-12-26T14:45:41.494Z,99221.09
2022-12-26T14:48:49.582Z,99217.69
2022-12-26T14:51:47.785Z,99226.50
2022-12-26T14:54:36.464Z,99223.97
2022-12-26T14:57:44.147Z,99235.28
2022-12-26T15:00:28.275Z,99234.53
2022-12-26T15:03:41.829Z,99257.22
2022-12-26T15:06:55.714Z,99251.19
2022-12-26T15:09:49.737Z,99261.78
2022-12-26T15:12:58.989Z,99272.44
2022-12-26T15:15:33.426Z,99284.66
2022-12-26T15:18:32.871Z,99283.03
2022-12-26T15:21:33.152Z,99290.00
2022-12-26T15:24:34.245Z,99298.81
2022-12-26T15:27:41.125Z,99298.03
2022-12-26T15:30:18.307Z,99312.81
2022-12-26T15:32:58.679Z,99313.75
2022-12-26T15:35:33.557Z,99311.97
2022-12-26T15:38:16.488Z,99317.22
2022-12-26T15:40:46.587Z,99316.50
2022-12-26T15:43:42.977Z,99332.16
2022-12-26T15:46:19.600Z,99342.72
2022-12-26T15:49:06.687Z,99346.19
2022-12-26T15:51:55.630Z,99347.94
2022-12-26T15:54:43.292Z,99364.59
2022-12-26T15:57:19.323Z,99369.03
2022-12-26T16:00:18.333Z,99379.47
2022-12-26T16:02:50.857Z,99372.56
2022-12-26T16:05:35.119Z,99374.44
2022-12-26T16:08:20.697Z,99368.44
2022-12-26T16:10:55.641Z,99385.03
2022-12-26T16:13:24.871Z,99379.88
2022-12-26T16:16:00.515Z,99382.53
2022-12-26T16:18:30.659Z,99399.22
2022-12-26T16:21:16.331Z,99408.81
2022-12-26T16:23:46.918Z,99409.75
2022-12-26T16:26:19.377Z,99417.66
2022-12-26T16:28:48.019Z,99418.59
2022-12-26T16:31:22.021Z,99424.75
2022-12-26T16:33:52.954Z,99424.75
2022-12-26T16:36:23.577Z,99432.59
2022-12-26T16:38:53.643Z,99430.03
2022-12-26T16:41:24.095Z,99423.09
2022-12-26T16:43:55.132Z,99431.78
2022-12-26T16:46:31.072Z,99440.47
2022-12-26T16:49:01.634Z,99442.22
2022-12-26T16:51:45.725Z,99457.97
2022-12-26T16:54:26.574Z,99454.53
2022-12-26T16:57:04.181Z,99458.00
2022-12-26T16:59:41.160Z,99456.34
2022-12-26T17:02:20.725Z,99472.09
2022-12-26T17:04:58.670Z,99479.97
2022-12-26T17:07:28.990Z,99480.88
2022-12-26T17:10:01.147Z,99482.66
2022-12-26T17:12:34.381Z,99487.91
2022-12-26T17:15:08.408Z,99494.84
2022-12-26T17:17:40.542Z,99498.34
2022-12-26T17:20:34.967Z,99505.31
2022-12-26T17:23:35.846Z,99512.31
2022-12-26T17:26:22.273Z,99507.97
2022-12-26T17:28:50.891Z,99521.91
2022-12-26T17:31:25.474Z,99513.22
2022-12-26T17:33:59.115Z,99513.19
2022-12-26T17:39:25.233Z,99515.81
2022-12-26T17:41:56.431Z,99532.38
2022-12-26T17:44:35.811Z,99529.75
2022-12-26T17:47:14.311Z,99541.94
2022-12-26T17:49:44.357Z,99539.31
2022-12-26T17:52:15.092Z,99544.53
2022-12-26T17:54:43.737Z,99535.81
2022-12-26T17:57:19.035Z,99554.06
2022-12-26T17:59:51.052Z,99551.41
2022-12-26T18:02:19.898Z,99560.09
2022-12-26T18:04:51.026Z,99560.97
2022-12-26T18:07:31.130Z,99561.81
2022-12-26T18:10:00.846Z,99573.06
2022-12-26T18:12:29.694Z,99567.78
2022-12-26T18:15:01.986Z,99568.63
2022-12-26T18:17:34.076Z,99581.63
2022-12-26T18:20:05.355Z,99591.97
2022-12-26T18:22:33.822Z,99588.50
2022-12-26T18:25:02.339Z,99599.72
2022-12-26T18:27:32.675Z,99606.66
2022-12-26T18:30:01.588Z,99600.47
2022-12-26T18:32:31.836Z,99603.06
2022-12-26T18:35:00.796Z,99610.00
2022-12-26T18:37:31.419Z,99623.06
2022-12-26T18:39:59.879Z,99632.56
2022-12-26T18:42:30.780Z,99635.16
2022-12-26T18:44:59.253Z,99641.97
2022-12-26T18:47:27.645Z,99642.75
2022-12-26T18:49:56.001Z,99659.31
2022-12-26T18:52:24.783Z,99655.00
2022-12-26T18:54:54.836Z,99664.56
2022-12-26T18:57:23.703Z,99672.31
2022-12-26T18:59:52.770Z,99666.28
2022-12-26T19:02:21.783Z,99681.75
2022-12-26T19:04:50.884Z,99683.59
2022-12-26T19:07:21.155Z,99685.28
2022-12-26T19:09:51.421Z,99693.97
2022-12-26T19:12:21.732Z,99697.53
2022-12-26T19:14:50.577Z,99703.63
2022-12-26T19:17:19.162Z,99707.97
2022-12-26T19:19:48.608Z,99710.47
2022-12-26T19:22:17.048Z,99713.06
2022-12-26T19:24:45.905Z,99713.00
2022-12-26T19:27:14.449Z,99705.19
2022-12-26T19:29:44.232Z,99711.28
2022-12-26T19:32:12.638Z,99714.69
2022-12-26T19:34:40.991Z,99718.06
2022-12-26T19:37:09.458Z,99720.72
2022-12-26T19:39:37.759Z,99721.63
2022-12-26T19:42:06.257Z,99727.69
2022-12-26T19:44:34.659Z,99726.81
2022-12-26T19:47:12.257Z,99728.66
2022-12-26T19:49:41.415Z,99728.63
2022-12-26T19:52:10.462Z,99730.22
2022-12-26T19:54:39.382Z,99737.09
2022-12-26T19:57:07.875Z,99732.81
2022-12-26T19:59:36.620Z,99734.59
2022-12-26T20:02:06.707Z,99734.63
2022-12-26T20:04:35.296Z,99735.53
2022-12-26T20:07:03.676Z,99730.38
2022-12-26T20:09:32.419Z,99733.88
2022-12-26T20:12:01.451Z,99738.22
2022-12-26T20:14:32.514Z,99742.53
2022-12-26T20:17:06.831Z,99744.16
2022-12-26T20:19:37.986Z,99747.69
2022-12-26T20:22:07.462Z,99758.97
2022-12-26T20:24:36.231Z,99751.13
2022-12-26T20:27:04.887Z,99754.56
2022-12-26T20:29:33.438Z,99756.38
2022-12-26T20:32:01.789Z,99764.34
2022-12-26T20:34:30.235Z,99760.88
2022-12-26T20:37:00.044Z,99762.69
2022-12-26T20:39:28.429Z,99769.66
2022-12-26T20:41:56.824Z,99780.03
2022-12-26T20:44:25.463Z,99771.38
2022-12-26T20:46:53.952Z,99776.53
2022-12-26T20:49:22.380Z,99779.13
2022-12-26T20:51:50.815Z,99777.34
2022-12-26T20:54:20.568Z,99779.91
2022-12-26T20:56:48.935Z,99782.44
2022-12-26T20:59:17.416Z,99780.69
2022-12-26T21:01:46.140Z,99780.59
2022-12-26T21:04:19.281Z,99788.41
2022-12-26T21:06:50.216Z,99790.88
2022-12-26T21:09:19.992Z,99791.69
2022-12-26T21:11:48.389Z,99790.00
2022-12-26T21:14:18.118Z,99788.22
2022-12-26T21:16:48.603Z,99802.06
2022-12-26T21:19:17.882Z,99792.44
2022-12-26T21:21:48.319Z,99808.09
2022-12-26T21:24:23.995Z,99797.63
2022-12-26T21:26:53.085Z,99808.94
2022-12-26T21:29:24.629Z,99809.88
2022-12-26T21:31:53.445Z,99821.09
2022-12-26T21:34:22.922Z,99817.53
2022-12-26T21:37:09.595Z,99821.09
2022-12-26T21:39:39.632Z,99824.63
2022-12-26T21:42:09.092Z,99828.00
2022-12-26T21:44:37.910Z,99839.25
2022-12-26T21:47:07.862Z,99834.94
2022-12-26T21:49:36.332Z,99836.72
2022-12-26T21:52:05.614Z,99836.69
2022-12-26T21:54:51.090Z,99841.00
2022-12-26T21:57:21.374Z,99848.75
2022-12-26T21:59:59.484Z,99842.88
2022-12-26T22:02:48.607Z,99849.91
2022-12-26T22:05:18.787Z,99861.25
2022-12-26T22:07:47.703Z,99855.06
2022-12-26T22:10:30.060Z,99848.06
2022-12-26T22:13:00.690Z,99852.47
2022-12-26T22:15:46.816Z,99856.66
2022-12-26T22:18:15.270Z,99860.88
2022-12-26T22:20:44.852Z,99868.59
2022-12-26T22:23:13.814Z,99878.94
2022-12-26T22:25:42.282Z,99885.09
2022-12-26T22:28:12.385Z,99885.88
2022-12-26T22:30:47.761Z,99887.63
2022-12-26T22:33:16.903Z,99888.50
2022-12-26T22:35:45.725Z,99895.31
2022-12-26T22:38:14.458Z,99884.03
2022-12-26T22:40:43.452Z,99894.44
2022-12-26T22:43:13.154Z,99899.66
2022-12-26T22:45:42.354Z,99900.50
2022-12-26T22:48:10.828Z,99892.81
2022-12-26T22:50:42.996Z,99902.38
2022-12-26T22:53:11.830Z,99898.03
2022-12-26T22:55:47.752Z,99903.16
2022-12-26T22:58:18.872Z,99897.97
2022-12-26T23:00:47.470Z,99903.31
2022-12-26T23:03:15.998Z,99901.47
2022-12-26T23:05:45.253Z,99912.00
2022-12-26T23:08:18.654Z,99911.13
2022-12-26T23:10:48.599Z,99906.75
2022-12-26T23:13:19.351Z,99913.69
2022-12-26T23:15:55.443Z,99907.72
2022-12-26T23:18:49.258Z,99917.25
2022-12-26T23:21:42.163Z,99920.59
2022-12-26T23:24:16.719Z,99921.56
2022-12-26T23:26:47.514Z,99911.94
2022-12-26T23:29:37.072Z,99921.59
2022-12-26T23:32:07.215Z,99920.66
2022-12-26T23:34:36.483Z,99924.81
2022-12-26T23:37:04.842Z,99923.97
2022-12-26T23:39:33.201Z,99928.34
2022-12-26T23:42:01.579Z,99920.69
2022-12-26T23:44:32.532Z,99913.69
2022-12-26T23:47:01.003Z,99922.34
2022-12-26T23:49:29.607Z,99929.44
2022-12-26T23:51:57.955Z,99932.09
2022-12-26T23:54:26.640Z,99927.69
2022-12-26T23:56:55.283Z,99925.03
2022-12-26T23:59:23.821Z,99925.06
